KGSP

Greenville Spartanburg International Airport

Greer, South Carolina, USA
METAR KGSP 170753Z AUTO 00000KT 10SM CLR 02/M03 A3023 RMK AO2 SLP240 T00171033
Observed Flight Rules
Dec-17 @ 07:53 UTC (18 minutes ago) Visual Flight Rules
Wind Visibility Clouds
Calm 10 miles
  • Clear skies
Temperatures Readings
Current 2°C / 36°F
Dewpoint -3°C / 27°F
Humidity 70%
Altimeter 30.23" Hg
Pressure 1024 hPa
Elevation 287
METAR KGSP 170753Z AUTO 00000KT 10SM CLR 02/M03 A3023 RMK AO2 SLP240 T00171033
Observed Flight Rules
Dec-17 @ 07:53 UTC
(18 minutes ago)
VFR
Wind Visibility
Calm 10 miles
Clouds
  • Clear skies
Temperature Dewpoint
2°C / 36°F -3°C / 27°F
Humidity Altimeter Pressure
70% 30.23" Hg 1024 hPa